sensor_id;sensor_type;location;lat;lon;timestamp;P1;durP1;ratioP1;P2;durP2;ratioP2
67776;SDS011;54576;52.020;5.536;2023-08-06T00:00:06;6.72;;;3.55;;
67776;SDS011;54576;52.020;5.536;2023-08-06T00:02:33;7.38;;;3.20;;
67776;SDS011;54576;52.020;5.536;2023-08-06T00:04:59;6.82;;;3.22;;
67776;SDS011;54576;52.020;5.536;2023-08-06T00:07:27;5.88;;;3.60;;
67776;SDS011;54576;52.020;5.536;2023-08-06T00:09:53;7.53;;;3.15;;
67776;SDS011;54576;52.020;5.536;2023-08-06T00:12:19;5.55;;;3.22;;
67776;SDS011;54576;52.020;5.536;2023-08-06T00:14:44;5.72;;;3.42;;
67776;SDS011;54576;52.020;5.536;2023-08-06T00:17:10;5.45;;;3.25;;
67776;SDS011;54576;52.020;5.536;2023-08-06T00:19:35;5.68;;;3.25;;
67776;SDS011;54576;52.020;5.536;2023-08-06T00:22:01;7.53;;;3.03;;
67776;SDS011;54576;52.020;5.536;2023-08-06T00:24:27;15.60;;;3.60;;
67776;SDS011;54576;52.020;5.536;2023-08-06T00:26:52;10.80;;;3.28;;
67776;SDS011;54576;52.020;5.536;2023-08-06T00:29:18;10.18;;;3.95;;
67776;SDS011;54576;52.020;5.536;2023-08-06T00:31:44;4.15;;;3.75;;
67776;SDS011;54576;52.020;5.536;2023-08-06T00:34:09;6.68;;;3.45;;
67776;SDS011;54576;52.020;5.536;2023-08-06T00:36:35;11.30;;;3.70;;
67776;SDS011;54576;52.020;5.536;2023-08-06T00:39:01;9.13;;;3.58;;
67776;SDS011;54576;52.020;5.536;2023-08-06T00:41:27;4.45;;;3.28;;
67776;SDS011;54576;52.020;5.536;2023-08-06T00:43:53;7.45;;;3.83;;
67776;SDS011;54576;52.020;5.536;2023-08-06T00:46:19;4.43;;;3.40;;
67776;SDS011;54576;52.020;5.536;2023-08-06T00:48:45;5.63;;;3.60;;
67776;SDS011;54576;52.020;5.536;2023-08-06T00:51:12;7.10;;;3.55;;
67776;SDS011;54576;52.020;5.536;2023-08-06T00:53:38;9.70;;;3.55;;
67776;SDS011;54576;52.020;5.536;2023-08-06T00:56:04;4.13;;;3.72;;
67776;SDS011;54576;52.020;5.536;2023-08-06T00:58:30;5.68;;;3.83;;
67776;SDS011;54576;52.020;5.536;2023-08-06T01:00:57;7.32;;;3.97;;
67776;SDS011;54576;52.020;5.536;2023-08-06T01:03:23;6.53;;;4.40;;
67776;SDS011;54576;52.020;5.536;2023-08-06T01:05:48;5.35;;;3.90;;
67776;SDS011;54576;52.020;5.536;2023-08-06T01:08:18;6.95;;;4.03;;
67776;SDS011;54576;52.020;5.536;2023-08-06T01:13:45;7.32;;;3.85;;
67776;SDS011;54576;52.020;5.536;2023-08-06T01:16:18;6.05;;;4.22;;
67776;SDS011;54576;52.020;5.536;2023-08-06T01:18:46;9.85;;;4.30;;
67776;SDS011;54576;52.020;5.536;2023-08-06T01:21:14;7.97;;;4.63;;
67776;SDS011;54576;52.020;5.536;2023-08-06T01:23:41;7.03;;;4.40;;
67776;SDS011;54576;52.020;5.536;2023-08-06T01:28:52;9.40;;;4.00;;
67776;SDS011;54576;52.020;5.536;2023-08-06T01:31:36;4.70;;;3.83;;
67776;SDS011;54576;52.020;5.536;2023-08-06T01:34:03;13.20;;;4.38;;
67776;SDS011;54576;52.020;5.536;2023-08-06T01:36:35;8.38;;;4.28;;
67776;SDS011;54576;52.020;5.536;2023-08-06T01:39:01;7.90;;;4.18;;
67776;SDS011;54576;52.020;5.536;2023-08-06T01:41:26;6.65;;;4.10;;
67776;SDS011;54576;52.020;5.536;2023-08-06T01:43:52;5.90;;;3.85;;
67776;SDS011;54576;52.020;5.536;2023-08-06T01:46:18;6.97;;;4.00;;
67776;SDS011;54576;52.020;5.536;2023-08-06T01:48:44;5.82;;;4.20;;
67776;SDS011;54576;52.020;5.536;2023-08-06T01:51:10;8.88;;;4.65;;
67776;SDS011;54576;52.020;5.536;2023-08-06T01:53:36;6.90;;;4.60;;
67776;SDS011;54576;52.020;5.536;2023-08-06T01:56:02;5.22;;;4.72;;
67776;SDS011;54576;52.020;5.536;2023-08-06T01:58:28;7.57;;;5.15;;
67776;SDS011;54576;52.020;5.536;2023-08-06T02:00:54;8.48;;;5.30;;
67776;SDS011;54576;52.020;5.536;2023-08-06T02:03:20;10.05;;;6.60;;
67776;SDS011;54576;52.020;5.536;2023-08-06T02:05:46;10.70;;;6.57;;
67776;SDS011;54576;52.020;5.536;2023-08-06T02:08:12;7.07;;;5.85;;
67776;SDS011;54576;52.020;5.536;2023-08-06T02:10:38;9.48;;;5.75;;
67776;SDS011;54576;52.020;5.536;2023-08-06T02:13:04;8.98;;;6.40;;
67776;SDS011;54576;52.020;5.536;2023-08-06T02:15:30;10.63;;;6.82;;
67776;SDS011;54576;52.020;5.536;2023-08-06T02:17:56;13.48;;;7.82;;
67776;SDS011;54576;52.020;5.536;2023-08-06T02:20:22;7.13;;;6.40;;
67776;SDS011;54576;52.020;5.536;2023-08-06T02:22:48;10.52;;;7.10;;
67776;SDS011;54576;52.020;5.536;2023-08-06T02:25:14;9.60;;;7.38;;
67776;SDS011;54576;52.020;5.536;2023-08-06T02:27:40;9.93;;;7.45;;
67776;SDS011;54576;52.020;5.536;2023-08-06T02:30:06;9.35;;;7.18;;
67776;SDS011;54576;52.020;5.536;2023-08-06T02:32:32;16.08;;;7.57;;
67776;SDS011;54576;52.020;5.536;2023-08-06T02:35:00;16.42;;;8.10;;
67776;SDS011;54576;52.020;5.536;2023-08-06T02:37:27;10.55;;;7.72;;
67776;SDS011;54576;52.020;5.536;2023-08-06T02:39:53;10.15;;;7.75;;
67776;SDS011;54576;52.020;5.536;2023-08-06T02:42:19;18.45;;;7.90;;
67776;SDS011;54576;52.020;5.536;2023-08-06T02:44:44;8.30;;;7.32;;
67776;SDS011;54576;52.020;5.536;2023-08-06T02:47:10;13.48;;;7.53;;
67776;SDS011;54576;52.020;5.536;2023-08-06T02:49:35;23.95;;;7.50;;
67776;SDS011;54576;52.020;5.536;2023-08-06T02:52:01;9.05;;;6.57;;
67776;SDS011;54576;52.020;5.536;2023-08-06T02:54:26;8.98;;;6.65;;
67776;SDS011;54576;52.020;5.536;2023-08-06T02:56:52;13.20;;;7.32;;
67776;SDS011;54576;52.020;5.536;2023-08-06T02:59:18;12.52;;;7.47;;
67776;SDS011;54576;52.020;5.536;2023-08-06T03:01:44;9.60;;;7.55;;
67776;SDS011;54576;52.020;5.536;2023-08-06T03:04:10;16.65;;;7.97;;
67776;SDS011;54576;52.020;5.536;2023-08-06T03:06:36;13.68;;;7.07;;
67776;SDS011;54576;52.020;5.536;2023-08-06T03:09:02;10.75;;;7.22;;
67776;SDS011;54576;52.020;5.536;2023-08-06T03:11:28;13.52;;;8.45;;
67776;SDS011;54576;52.020;5.536;2023-08-06T03:13:54;11.07;;;7.45;;
67776;SDS011;54576;52.020;5.536;2023-08-06T03:16:20;8.95;;;6.65;;
67776;SDS011;54576;52.020;5.536;2023-08-06T03:18:46;10.52;;;7.07;;
67776;SDS011;54576;52.020;5.536;2023-08-06T03:21:12;11.88;;;7.65;;
67776;SDS011;54576;52.020;5.536;2023-08-06T03:23:38;10.45;;;7.07;;
67776;SDS011;54576;52.020;5.536;2023-08-06T03:26:04;11.25;;;7.28;;
67776;SDS011;54576;52.020;5.536;2023-08-06T03:28:30;8.20;;;6.85;;
67776;SDS011;54576;52.020;5.536;2023-08-06T03:31:02;7.90;;;6.75;;
67776;SDS011;54576;52.020;5.536;2023-08-06T03:33:29;8.13;;;6.63;;
67776;SDS011;54576;52.020;5.536;2023-08-06T03:35:55;13.35;;;6.85;;
67776;SDS011;54576;52.020;5.536;2023-08-06T03:38:21;13.73;;;7.28;;
67776;SDS011;54576;52.020;5.536;2023-08-06T03:40:48;9.75;;;6.00;;
67776;SDS011;54576;52.020;5.536;2023-08-06T03:43:14;7.47;;;6.35;;
67776;SDS011;54576;52.020;5.536;2023-08-06T03:45:40;9.90;;;6.97;;
67776;SDS011;54576;52.020;5.536;2023-08-06T03:48:07;11.70;;;5.75;;
67776;SDS011;54576;52.020;5.536;2023-08-06T03:50:33;12.15;;;7.55;;
67776;SDS011;54576;52.020;5.536;2023-08-06T03:52:59;9.75;;;6.82;;
67776;SDS011;54576;52.020;5.536;2023-08-06T03:55:25;8.80;;;6.75;;
67776;SDS011;54576;52.020;5.536;2023-08-06T03:57:51;11.05;;;6.28;;
67776;SDS011;54576;52.020;5.536;2023-08-06T04:00:19;7.43;;;6.47;;
67776;SDS011;54576;52.020;5.536;2023-08-06T04:02:45;7.25;;;6.13;;
67776;SDS011;54576;52.020;5.536;2023-08-06T04:05:11;7.72;;;6.43;;
67776;SDS011;54576;52.020;5.536;2023-08-06T04:07:37;7.97;;;6.53;;
67776;SDS011;54576;52.020;5.536;2023-08-06T04:10:04;10.70;;;6.65;;
67776;SDS011;54576;52.020;5.536;2023-08-06T04:12:30;8.80;;;6.93;;
67776;SDS011;54576;52.020;5.536;2023-08-06T04:14:58;9.35;;;6.93;;
67776;SDS011;54576;52.020;5.536;2023-08-06T04:17:24;9.02;;;7.63;;
67776;SDS011;54576;52.020;5.536;2023-08-06T04:19:51;12.77;;;6.82;;
67776;SDS011;54576;52.020;5.536;2023-08-06T04:22:17;14.43;;;7.82;;
67776;SDS011;54576;52.020;5.536;2023-08-06T04:24:43;13.30;;;8.82;;
67776;SDS011;54576;52.020;5.536;2023-08-06T04:27:10;13.68;;;8.80;;
67776;SDS011;54576;52.020;5.536;2023-08-06T04:29:36;10.05;;;7.75;;
67776;SDS011;54576;52.020;5.536;2023-08-06T04:32:05;12.27;;;7.97;;
67776;SDS011;54576;52.020;5.536;2023-08-06T04:34:32;10.88;;;7.63;;
67776;SDS011;54576;52.020;5.536;2023-08-06T04:36:58;12.27;;;8.73;;
67776;SDS011;54576;52.020;5.536;2023-08-06T04:39:24;9.35;;;7.85;;
67776;SDS011;54576;52.020;5.536;2023-08-06T04:41:50;12.93;;;8.07;;
67776;SDS011;54576;52.020;5.536;2023-08-06T04:44:16;11.88;;;8.82;;
67776;SDS011;54576;52.020;5.536;2023-08-06T04:46:42;10.55;;;8.50;;
67776;SDS011;54576;52.020;5.536;2023-08-06T04:49:07;16.48;;;8.85;;
67776;SDS011;54576;52.020;5.536;2023-08-06T04:51:34;15.70;;;9.10;;
67776;SDS011;54576;52.020;5.536;2023-08-06T04:54:00;13.35;;;8.52;;
67776;SDS011;54576;52.020;5.536;2023-08-06T04:56:28;12.52;;;8.88;;
67776;SDS011;54576;52.020;5.536;2023-08-06T04:58:55;10.77;;;8.35;;
67776;SDS011;54576;52.020;5.536;2023-08-06T05:01:21;10.80;;;8.60;;
67776;SDS011;54576;52.020;5.536;2023-08-06T05:03:47;9.95;;;8.18;;
67776;SDS011;54576;52.020;5.536;2023-08-06T05:06:13;12.95;;;8.90;;
67776;SDS011;54576;52.020;5.536;2023-08-06T05:08:39;10.68;;;7.97;;
67776;SDS011;54576;52.020;5.536;2023-08-06T05:11:05;13.60;;;7.95;;
67776;SDS011;54576;52.020;5.536;2023-08-06T05:13:31;9.80;;;8.80;;
67776;SDS011;54576;52.020;5.536;2023-08-06T05:15:57;16.45;;;8.45;;
67776;SDS011;54576;52.020;5.536;2023-08-06T05:18:23;12.73;;;8.90;;
67776;SDS011;54576;52.020;5.536;2023-08-06T05:20:53;10.55;;;8.90;;
67776;SDS011;54576;52.020;5.536;2023-08-06T05:23:19;13.77;;;8.63;;
67776;SDS011;54576;52.020;5.536;2023-08-06T05:25:45;14.48;;;10.15;;
67776;SDS011;54576;52.020;5.536;2023-08-06T05:28:11;14.98;;;9.40;;
67776;SDS011;54576;52.020;5.536;2023-08-06T05:30:40;21.48;;;10.95;;
67776;SDS011;54576;52.020;5.536;2023-08-06T05:33:06;19.65;;;11.00;;
67776;SDS011;54576;52.020;5.536;2023-08-06T05:35:32;14.98;;;10.90;;
67776;SDS011;54576;52.020;5.536;2023-08-06T05:37:58;17.33;;;10.45;;
67776;SDS011;54576;52.020;5.536;2023-08-06T05:40:24;14.80;;;10.73;;
67776;SDS011;54576;52.020;5.536;2023-08-06T05:42:51;13.43;;;10.57;;
67776;SDS011;54576;52.020;5.536;2023-08-06T05:45:17;14.25;;;10.15;;
67776;SDS011;54576;52.020;5.536;2023-08-06T05:47:43;19.95;;;10.93;;
67776;SDS011;54576;52.020;5.536;2023-08-06T05:50:09;16.73;;;10.55;;
67776;SDS011;54576;52.020;5.536;2023-08-06T05:52:35;14.75;;;9.85;;
67776;SDS011;54576;52.020;5.536;2023-08-06T05:55:01;10.73;;;9.43;;
67776;SDS011;54576;52.020;5.536;2023-08-06T05:57:27;16.23;;;10.27;;
67776;SDS011;54576;52.020;5.536;2023-08-06T05:59:53;13.77;;;9.75;;
67776;SDS011;54576;52.020;5.536;2023-08-06T06:02:19;17.75;;;9.55;;
67776;SDS011;54576;52.020;5.536;2023-08-06T06:04:45;18.20;;;9.70;;
67776;SDS011;54576;52.020;5.536;2023-08-06T06:07:11;12.35;;;9.68;;
67776;SDS011;54576;52.020;5.536;2023-08-06T06:09:37;12.48;;;10.85;;
67776;SDS011;54576;52.020;5.536;2023-08-06T06:12:04;14.30;;;10.00;;
67776;SDS011;54576;52.020;5.536;2023-08-06T06:14:30;12.45;;;9.85;;
67776;SDS011;54576;52.020;5.536;2023-08-06T06:16:56;13.73;;;10.23;;
67776;SDS011;54576;52.020;5.536;2023-08-06T06:19:22;17.27;;;11.00;;
67776;SDS011;54576;52.020;5.536;2023-08-06T06:21:48;15.77;;;11.18;;
67776;SDS011;54576;52.020;5.536;2023-08-06T06:24:14;12.52;;;10.63;;
67776;SDS011;54576;52.020;5.536;2023-08-06T06:26:40;13.93;;;10.30;;
67776;SDS011;54576;52.020;5.536;2023-08-06T06:29:06;10.18;;;9.10;;
67776;SDS011;54576;52.020;5.536;2023-08-06T06:31:31;12.63;;;9.70;;
67776;SDS011;54576;52.020;5.536;2023-08-06T06:33:57;15.70;;;10.00;;
67776;SDS011;54576;52.020;5.536;2023-08-06T06:36:23;21.52;;;10.30;;
67776;SDS011;54576;52.020;5.536;2023-08-06T06:38:49;18.05;;;11.25;;
67776;SDS011;54576;52.020;5.536;2023-08-06T06:41:17;13.85;;;10.38;;
67776;SDS011;54576;52.020;5.536;2023-08-06T06:43:43;17.15;;;10.52;;
67776;SDS011;54576;52.020;5.536;2023-08-06T06:46:08;14.05;;;10.82;;
67776;SDS011;54576;52.020;5.536;2023-08-06T06:48:34;24.70;;;10.43;;
67776;SDS011;54576;52.020;5.536;2023-08-06T06:50:59;16.95;;;10.55;;
67776;SDS011;54576;52.020;5.536;2023-08-06T06:53:25;13.85;;;9.85;;
67776;SDS011;54576;52.020;5.536;2023-08-06T06:55:54;15.43;;;10.82;;
67776;SDS011;54576;52.020;5.536;2023-08-06T06:58:20;14.88;;;10.82;;
67776;SDS011;54576;52.020;5.536;2023-08-06T07:00:48;12.68;;;9.50;;
67776;SDS011;54576;52.020;5.536;2023-08-06T07:03:14;11.70;;;9.95;;
67776;SDS011;54576;52.020;5.536;2023-08-06T07:05:40;14.23;;;10.20;;
67776;SDS011;54576;52.020;5.536;2023-08-06T07:08:06;12.93;;;10.13;;
67776;SDS011;54576;52.020;5.536;2023-08-06T07:10:32;17.02;;;10.73;;
67776;SDS011;54576;52.020;5.536;2023-08-06T07:12:58;13.73;;;10.25;;
67776;SDS011;54576;52.020;5.536;2023-08-06T07:15:23;20.58;;;10.95;;
67776;SDS011;54576;52.020;5.536;2023-08-06T07:17:49;12.93;;;9.93;;
67776;SDS011;54576;52.020;5.536;2023-08-06T07:20:14;12.10;;;10.18;;
67776;SDS011;54576;52.020;5.536;2023-08-06T07:22:40;14.07;;;10.40;;
67776;SDS011;54576;52.020;5.536;2023-08-06T07:25:06;11.98;;;10.10;;
67776;SDS011;54576;52.020;5.536;2023-08-06T07:27:32;12.63;;;10.10;;
67776;SDS011;54576;52.020;5.536;2023-08-06T07:29:57;14.60;;;9.18;;
67776;SDS011;54576;52.020;5.536;2023-08-06T07:32:23;10.18;;;8.25;;
67776;SDS011;54576;52.020;5.536;2023-08-06T07:34:49;12.40;;;8.85;;
67776;SDS011;54576;52.020;5.536;2023-08-06T07:37:14;10.20;;;9.20;;
67776;SDS011;54576;52.020;5.536;2023-08-06T07:39:40;9.85;;;8.82;;
67776;SDS011;54576;52.020;5.536;2023-08-06T07:42:07;9.63;;;8.70;;
67776;SDS011;54576;52.020;5.536;2023-08-06T07:44:33;11.98;;;9.00;;
67776;SDS011;54576;52.020;5.536;2023-08-06T07:46:58;10.57;;;8.90;;
67776;SDS011;54576;52.020;5.536;2023-08-06T07:49:24;11.02;;;8.00;;
67776;SDS011;54576;52.020;5.536;2023-08-06T07:51:50;8.73;;;7.60;;
67776;SDS011;54576;52.020;5.536;2023-08-06T07:54:16;5.03;;;4.60;;
67776;SDS011;54576;52.020;5.536;2023-08-06T07:56:42;7.45;;;5.03;;
67776;SDS011;54576;52.020;5.536;2023-08-06T07:59:08;5.25;;;4.75;;
67776;SDS011;54576;52.020;5.536;2023-08-06T08:01:34;5.82;;;5.30;;
67776;SDS011;54576;52.020;5.536;2023-08-06T08:03:59;6.45;;;5.45;;
67776;SDS011;54576;52.020;5.536;2023-08-06T08:06:25;7.20;;;5.80;;
67776;SDS011;54576;52.020;5.536;2023-08-06T08:08:50;8.82;;;6.38;;
67776;SDS011;54576;52.020;5.536;2023-08-06T08:11:17;9.02;;;5.78;;
67776;SDS011;54576;52.020;5.536;2023-08-06T08:13:43;5.60;;;5.10;;
67776;SDS011;54576;52.020;5.536;2023-08-06T08:16:09;5.25;;;4.40;;
67776;SDS011;54576;52.020;5.536;2023-08-06T08:18:35;4.63;;;4.22;;
67776;SDS011;54576;52.020;5.536;2023-08-06T08:21:00;4.93;;;4.43;;
67776;SDS011;54576;52.020;5.536;2023-08-06T08:23:26;2.35;;;2.15;;
67776;SDS011;54576;52.020;5.536;2023-08-06T08:25:51;1.77;;;1.65;;
67776;SDS011;54576;52.020;5.536;2023-08-06T08:28:17;2.35;;;1.30;;
67776;SDS011;54576;52.020;5.536;2023-08-06T08:30:43;1.10;;;1.10;;
67776;SDS011;54576;52.020;5.536;2023-08-06T08:33:09;1.20;;;1.08;;
67776;SDS011;54576;52.020;5.536;2023-08-06T08:35:34;0.60;;;0.60;;
67776;SDS011;54576;52.020;5.536;2023-08-06T08:38:01;1.25;;;0.50;;
67776;SDS011;54576;52.020;5.536;2023-08-06T08:40:29;0.38;;;0.38;;
67776;SDS011;54576;52.020;5.536;2023-08-06T08:42:57;0.40;;;0.40;;
67776;SDS011;54576;52.020;5.536;2023-08-06T08:45:24;2.28;;;0.50;;
67776;SDS011;54576;52.020;5.536;2023-08-06T08:47:53;0.77;;;0.60;;
67776;SDS011;54576;52.020;5.536;2023-08-06T08:50:20;1.05;;;0.50;;
67776;SDS011;54576;52.020;5.536;2023-08-06T08:52:46;3.90;;;1.00;;
67776;SDS011;54576;52.020;5.536;2023-08-06T08:55:14;0.55;;;0.50;;
67776;SDS011;54576;52.020;5.536;2023-08-06T08:57:41;5.18;;;1.00;;
67776;SDS011;54576;52.020;5.536;2023-08-06T09:00:07;0.80;;;0.80;;
67776;SDS011;54576;52.020;5.536;2023-08-06T09:02:33;0.80;;;0.80;;
67776;SDS011;54576;52.020;5.536;2023-08-06T09:05:05;1.58;;;1.20;;
67776;SDS011;54576;52.020;5.536;2023-08-06T09:07:32;2.53;;;1.05;;
67776;SDS011;54576;52.020;5.536;2023-08-06T09:10:06;0.80;;;0.80;;
67776;SDS011;54576;52.020;5.536;2023-08-06T09:12:35;1.20;;;1.10;;
67776;SDS011;54576;52.020;5.536;2023-08-06T09:15:01;1.42;;;1.05;;
67776;SDS011;54576;52.020;5.536;2023-08-06T09:17:28;1.05;;;1.00;;
67776;SDS011;54576;52.020;5.536;2023-08-06T09:19:54;1.67;;;1.15;;
67776;SDS011;54576;52.020;5.536;2023-08-06T09:22:20;6.82;;;1.00;;
67776;SDS011;54576;52.020;5.536;2023-08-06T09:24:45;1.35;;;1.13;;
67776;SDS011;54576;52.020;5.536;2023-08-06T09:27:12;1.88;;;1.70;;
67776;SDS011;54576;52.020;5.536;2023-08-06T09:29:42;1.88;;;1.70;;
67776;SDS011;54576;52.020;5.536;2023-08-06T09:32:08;1.90;;;1.55;;
67776;SDS011;54576;52.020;5.536;2023-08-06T09:34:33;2.20;;;1.63;;
67776;SDS011;54576;52.020;5.536;2023-08-06T09:36:59;1.90;;;1.70;;
67776;SDS011;54576;52.020;5.536;2023-08-06T09:39:28;2.05;;;1.95;;
67776;SDS011;54576;52.020;5.536;2023-08-06T09:41:55;4.68;;;2.30;;
67776;SDS011;54576;52.020;5.536;2023-08-06T09:44:26;2.95;;;2.03;;
67776;SDS011;54576;52.020;5.536;2023-08-06T09:46:56;2.80;;;2.17;;
67776;SDS011;54576;52.020;5.536;2023-08-06T09:49:27;3.40;;;2.55;;
67776;SDS011;54576;52.020;5.536;2023-08-06T09:52:09;2.58;;;2.35;;
67776;SDS011;54576;52.020;5.536;2023-08-06T09:54:40;4.20;;;2.38;;
67776;SDS011;54576;52.020;5.536;2023-08-06T09:57:06;2.60;;;2.40;;
67776;SDS011;54576;52.020;5.536;2023-08-06T09:59:33;4.25;;;2.50;;
67776;SDS011;54576;52.020;5.536;2023-08-06T10:02:00;5.93;;;2.63;;
67776;SDS011;54576;52.020;5.536;2023-08-06T10:04:27;6.95;;;2.88;;
67776;SDS011;54576;52.020;5.536;2023-08-06T10:06:54;5.65;;;2.70;;
67776;SDS011;54576;52.020;5.536;2023-08-06T10:09:20;3.65;;;2.35;;
67776;SDS011;54576;52.020;5.536;2023-08-06T10:11:48;2.72;;;2.53;;
67776;SDS011;54576;52.020;5.536;2023-08-06T10:14:16;4.28;;;2.70;;
67776;SDS011;54576;52.020;5.536;2023-08-06T10:16:46;3.72;;;2.83;;
67776;SDS011;54576;52.020;5.536;2023-08-06T10:19:13;3.97;;;2.88;;
67776;SDS011;54576;52.020;5.536;2023-08-06T10:21:40;4.22;;;3.10;;
67776;SDS011;54576;52.020;5.536;2023-08-06T10:24:09;4.85;;;3.42;;
67776;SDS011;54576;52.020;5.536;2023-08-06T10:26:39;3.75;;;3.45;;
67776;SDS011;54576;52.020;5.536;2023-08-06T10:32:02;4.90;;;3.60;;
67776;SDS011;54576;52.020;5.536;2023-08-06T10:35:11;5.15;;;3.58;;
67776;SDS011;54576;52.020;5.536;2023-08-06T10:37:20;7.03;;;3.58;;
67776;SDS011;54576;52.020;5.536;2023-08-06T10:39:50;6.30;;;3.63;;
67776;SDS011;54576;52.020;5.536;2023-08-06T10:42:20;5.90;;;4.00;;
67776;SDS011;54576;52.020;5.536;2023-08-06T10:47:53;6.95;;;3.70;;
67776;SDS011;54576;52.020;5.536;2023-08-06T10:50:19;5.30;;;2.75;;
67776;SDS011;54576;52.020;5.536;2023-08-06T10:52:45;6.85;;;3.88;;
67776;SDS011;54576;52.020;5.536;2023-08-06T10:55:12;8.05;;;4.07;;
67776;SDS011;54576;52.020;5.536;2023-08-06T10:57:39;5.65;;;4.07;;
67776;SDS011;54576;52.020;5.536;2023-08-06T11:00:05;10.13;;;4.38;;
67776;SDS011;54576;52.020;5.536;2023-08-06T11:02:33;7.15;;;4.20;;
67776;SDS011;54576;52.020;5.536;2023-08-06T11:05:04;6.38;;;3.50;;
67776;SDS011;54576;52.020;5.536;2023-08-06T11:07:34;6.30;;;3.80;;
67776;SDS011;54576;52.020;5.536;2023-08-06T11:10:07;8.15;;;3.75;;
67776;SDS011;54576;52.020;5.536;2023-08-06T11:12:34;8.65;;;3.50;;
67776;SDS011;54576;52.020;5.536;2023-08-06T11:15:00;6.20;;;2.88;;
67776;SDS011;54576;52.020;5.536;2023-08-06T11:17:27;6.10;;;3.15;;
67776;SDS011;54576;52.020;5.536;2023-08-06T11:19:54;6.95;;;3.38;;
67776;SDS011;54576;52.020;5.536;2023-08-06T11:22:22;6.50;;;3.05;;
67776;SDS011;54576;52.020;5.536;2023-08-06T11:24:52;5.25;;;3.13;;
67776;SDS011;54576;52.020;5.536;2023-08-06T11:27:18;7.72;;;3.13;;
67776;SDS011;54576;52.020;5.536;2023-08-06T11:29:44;7.47;;;2.83;;
67776;SDS011;54576;52.020;5.536;2023-08-06T11:32:10;4.57;;;2.70;;
67776;SDS011;54576;52.020;5.536;2023-08-06T11:34:36;7.70;;;3.10;;
67776;SDS011;54576;52.020;5.536;2023-08-06T11:37:03;5.30;;;3.00;;
67776;SDS011;54576;52.020;5.536;2023-08-06T11:46:57;6.03;;;2.83;;
67776;SDS011;54576;52.020;5.536;2023-08-06T11:49:47;7.85;;;2.60;;
67776;SDS011;54576;52.020;5.536;2023-08-06T11:54:59;5.55;;;2.75;;
67776;SDS011;54576;52.020;5.536;2023-08-06T11:57:31;5.15;;;2.97;;
67776;SDS011;54576;52.020;5.536;2023-08-06T12:00:01;3.67;;;2.55;;
67776;SDS011;54576;52.020;5.536;2023-08-06T12:02:33;3.75;;;2.83;;
67776;SDS011;54576;52.020;5.536;2023-08-06T12:07:32;6.80;;;3.00;;
67776;SDS011;54576;52.020;5.536;2023-08-06T12:10:01;3.78;;;2.55;;
67776;SDS011;54576;52.020;5.536;2023-08-06T12:12:27;5.10;;;2.33;;
67776;SDS011;54576;52.020;5.536;2023-08-06T12:14:54;3.15;;;2.65;;
67776;SDS011;54576;52.020;5.536;2023-08-06T12:17:19;3.13;;;2.22;;
67776;SDS011;54576;52.020;5.536;2023-08-06T12:19:45;7.45;;;2.30;;
67776;SDS011;54576;52.020;5.536;2023-08-06T12:22:14;5.40;;;1.98;;
67776;SDS011;54576;52.020;5.536;2023-08-06T12:24:43;5.15;;;2.40;;
67776;SDS011;54576;52.020;5.536;2023-08-06T12:27:09;3.92;;;1.92;;
67776;SDS011;54576;52.020;5.536;2023-08-06T12:29:36;4.72;;;1.80;;
67776;SDS011;54576;52.020;5.536;2023-08-06T12:32:05;4.55;;;2.05;;
67776;SDS011;54576;52.020;5.536;2023-08-06T12:34:31;4.47;;;1.80;;
67776;SDS011;54576;52.020;5.536;2023-08-06T12:36:56;6.40;;;1.98;;
67776;SDS011;54576;52.020;5.536;2023-08-06T12:39:22;3.10;;;2.38;;
67776;SDS011;54576;52.020;5.536;2023-08-06T12:41:47;13.63;;;4.07;;
67776;SDS011;54576;52.020;5.536;2023-08-06T12:44:14;4.88;;;3.70;;
67776;SDS011;54576;52.020;5.536;2023-08-06T12:46:40;2.47;;;2.28;;
67776;SDS011;54576;52.020;5.536;2023-08-06T12:49:08;2.33;;;1.30;;
67776;SDS011;54576;52.020;5.536;2023-08-06T12:51:36;3.95;;;1.52;;
67776;SDS011;54576;52.020;5.536;2023-08-06T12:54:02;4.32;;;1.83;;
67776;SDS011;54576;52.020;5.536;2023-08-06T12:56:27;2.85;;;1.40;;
67776;SDS011;54576;52.020;5.536;2023-08-06T12:58:55;1.98;;;1.13;;
67776;SDS011;54576;52.020;5.536;2023-08-06T13:01:20;2.22;;;1.27;;
67776;SDS011;54576;52.020;5.536;2023-08-06T13:03:46;1.95;;;1.23;;
67776;SDS011;54576;52.020;5.536;2023-08-06T13:06:12;4.43;;;1.10;;
67776;SDS011;54576;52.020;5.536;2023-08-06T13:08:37;5.75;;;1.20;;
67776;SDS011;54576;52.020;5.536;2023-08-06T13:11:03;1.80;;;1.08;;
67776;SDS011;54576;52.020;5.536;2023-08-06T13:13:30;1.40;;;1.10;;
67776;SDS011;54576;52.020;5.536;2023-08-06T13:15:58;2.45;;;1.17;;
67776;SDS011;54576;52.020;5.536;2023-08-06T13:18:23;2.85;;;1.42;;
67776;SDS011;54576;52.020;5.536;2023-08-06T13:20:49;3.85;;;1.20;;
67776;SDS011;54576;52.020;5.536;2023-08-06T13:23:19;5.90;;;1.50;;
67776;SDS011;54576;52.020;5.536;2023-08-06T13:25:45;6.00;;;1.40;;
67776;SDS011;54576;52.020;5.536;2023-08-06T13:28:10;3.15;;;1.40;;
67776;SDS011;54576;52.020;5.536;2023-08-06T13:30:36;3.33;;;1.15;;
67776;SDS011;54576;52.020;5.536;2023-08-06T13:33:07;6.50;;;1.33;;
67776;SDS011;54576;52.020;5.536;2023-08-06T13:35:35;4.68;;;1.20;;
67776;SDS011;54576;52.020;5.536;2023-08-06T13:38:01;3.45;;;1.10;;
67776;SDS011;54576;52.020;5.536;2023-08-06T13:40:32;6.65;;;1.48;;
67776;SDS011;54576;52.020;5.536;2023-08-06T13:42:59;6.05;;;1.40;;
67776;SDS011;54576;52.020;5.536;2023-08-06T13:45:24;4.75;;;1.23;;
67776;SDS011;54576;52.020;5.536;2023-08-06T13:47:50;1.38;;;1.20;;
67776;SDS011;54576;52.020;5.536;2023-08-06T13:50:16;9.23;;;1.75;;
67776;SDS011;54576;52.020;5.536;2023-08-06T13:52:41;2.92;;;1.20;;
67776;SDS011;54576;52.020;5.536;2023-08-06T13:55:07;5.57;;;1.40;;
67776;SDS011;54576;52.020;5.536;2023-08-06T13:57:36;1.27;;;1.17;;
67776;SDS011;54576;52.020;5.536;2023-08-06T14:00:04;3.47;;;1.20;;
67776;SDS011;54576;52.020;5.536;2023-08-06T14:02:30;2.53;;;1.55;;
67776;SDS011;54576;52.020;5.536;2023-08-06T14:04:56;2.08;;;1.20;;
67776;SDS011;54576;52.020;5.536;2023-08-06T14:07:22;6.10;;;1.48;;
67776;SDS011;54576;52.020;5.536;2023-08-06T14:09:47;3.00;;;1.67;;
67776;SDS011;54576;52.020;5.536;2023-08-06T14:12:14;5.70;;;1.50;;
67776;SDS011;54576;52.020;5.536;2023-08-06T14:14:40;8.48;;;1.80;;
67776;SDS011;54576;52.020;5.536;2023-08-06T14:17:05;2.38;;;1.40;;
67776;SDS011;54576;52.020;5.536;2023-08-06T14:19:31;7.00;;;1.60;;
67776;SDS011;54576;52.020;5.536;2023-08-06T14:21:56;3.75;;;1.48;;
67776;SDS011;54576;52.020;5.536;2023-08-06T14:24:22;6.32;;;1.67;;
67776;SDS011;54576;52.020;5.536;2023-08-06T14:26:48;4.60;;;1.60;;
67776;SDS011;54576;52.020;5.536;2023-08-06T14:29:13;3.40;;;1.60;;
67776;SDS011;54576;52.020;5.536;2023-08-06T14:31:42;4.05;;;2.05;;
67776;SDS011;54576;52.020;5.536;2023-08-06T14:34:07;5.10;;;2.08;;
67776;SDS011;54576;52.020;5.536;2023-08-06T14:36:33;5.20;;;1.92;;
67776;SDS011;54576;52.020;5.536;2023-08-06T14:38:58;4.45;;;2.00;;
67776;SDS011;54576;52.020;5.536;2023-08-06T14:41:24;9.45;;;2.30;;
67776;SDS011;54576;52.020;5.536;2023-08-06T14:43:50;3.28;;;2.00;;
67776;SDS011;54576;52.020;5.536;2023-08-06T14:46:15;4.78;;;1.90;;
67776;SDS011;54576;52.020;5.536;2023-08-06T14:48:41;3.40;;;1.83;;
67776;SDS011;54576;52.020;5.536;2023-08-06T14:51:09;4.63;;;1.70;;
67776;SDS011;54576;52.020;5.536;2023-08-06T14:53:35;3.10;;;1.65;;
67776;SDS011;54576;52.020;5.536;2023-08-06T14:56:00;4.22;;;1.70;;
67776;SDS011;54576;52.020;5.536;2023-08-06T14:58:26;4.28;;;1.63;;
67776;SDS011;54576;52.020;5.536;2023-08-06T15:00:52;2.70;;;1.60;;
67776;SDS011;54576;52.020;5.536;2023-08-06T15:03:17;5.60;;;1.63;;